Time;durP1;ratioP1;P1;durP2;ratioP2;P2;SDS_P1;SDS_P2;PMS_P1;PMS_P2;Temp;Humidity;BMP_temperature;BMP_pressure;BME280_temperature;BME280_humidity;BME280_pressure;Samples;Min_cycle;Max_cycle;Signal;HPM_P1;HPM_P2
2023/05/27 00:01:19;;;;;;;15.35;4.93;;;;;;;;;;5018074;28;20026;-75
2023/05/27 00:03:46;;;;;;;15.85;5.00;;;;;;;;;;5029545;28;20041;-74
2023/05/27 00:06:12;;;;;;;15.05;4.88;;;;;;;;;;5016630;28;20029;-75
2023/05/27 00:08:38;;;;;;;14.27;4.45;;;;;;;;;;5025227;28;20104;-75
2023/05/27 00:11:04;;;;;;;15.23;4.85;;;;;;;;;;5023989;28;20449;-76
2023/05/27 00:13:30;;;;;;;14.57;4.90;;;;;;;;;;5000879;28;20038;-76
2023/05/27 00:15:56;;;;;;;15.20;5.53;;;;;;;;;;5014407;28;20036;-75
2023/05/27 00:18:22;;;;;;;10.38;4.10;;;;;;;;;;5027036;28;20412;-75
2023/05/27 00:20:48;;;;;;;15.00;4.97;;;;;;;;;;5021875;28;20119;-75
2023/05/27 00:23:15;;;;;;;16.13;4.75;;;;;;;;;;5020863;28;20026;-76
2023/05/27 00:25:41;;;;;;;14.90;5.15;;;;;;;;;;5028510;28;20036;-75
2023/05/27 00:28:07;;;;;;;19.92;5.20;;;;;;;;;;5015603;28;20537;-75
2023/05/27 00:30:33;;;;;;;15.18;4.95;;;;;;;;;;5025907;28;20438;-75
2023/05/27 00:32:59;;;;;;;13.98;4.47;;;;;;;;;;5022513;28;20403;-75
2023/05/27 00:35:25;;;;;;;15.52;5.30;;;;;;;;;;5018879;28;20030;-75
2023/05/27 00:37:51;;;;;;;13.43;4.45;;;;;;;;;;5028350;28;20159;-75
2023/05/27 00:40:20;;;;;;;19.90;4.90;;;;;;;;;;5016926;28;20109;-75
2023/05/27 00:42:46;;;;;;;16.73;5.22;;;;;;;;;;5024223;28;20536;-75
2023/05/27 00:45:12;;;;;;;17.95;4.90;;;;;;;;;;5024485;28;20064;-75
2023/05/27 00:47:38;;;;;;;15.45;5.78;;;;;;;;;;5016405;28;20030;-74
2023/05/27 00:50:05;;;;;;;13.65;5.38;;;;;;;;;;5014993;28;20030;-75
2023/05/27 00:52:31;;;;;;;9.40;4.60;;;;;;;;;;5008033;28;20455;-75
2023/05/27 00:54:58;;;;;;;16.17;4.95;;;;;;;;;;5021620;28;20041;-74
2023/05/27 00:57:25;;;;;;;17.42;4.97;;;;;;;;;;5000290;28;20022;-76
2023/05/27 00:59:51;;;;;;;11.80;4.72;;;;;;;;;;5010586;28;20105;-76
2023/05/27 01:02:18;;;;;;;14.45;4.82;;;;;;;;;;5010288;28;20038;-76
2023/05/27 01:04:46;;;;;;;13.18;4.68;;;;;;;;;;5024242;28;20026;-76
2023/05/27 01:07:16;;;;;;;20.67;5.07;;;;;;;;;;5005836;28;20452;-76
2023/05/27 01:09:42;;;;;;;14.50;4.95;;;;;;;;;;5016159;28;20022;-76
2023/05/27 01:12:37;;;;;;;20.08;5.22;;;;;;;;;;5058640;23;20112;-72
2023/05/27 01:15:05;;;;;;;19.40;5.88;;;;;;;;;;4967460;28;20126;-74
2023/05/27 01:17:31;;;;;;;17.70;5.13;;;;;;;;;;5025335;28;20021;-74
2023/05/27 01:19:59;;;;;;;18.50;5.75;;;;;;;;;;4997637;28;20022;-73
2023/05/27 01:22:27;;;;;;;19.10;5.28;;;;;;;;;;5026696;28;20422;-73
2023/05/27 01:24:53;;;;;;;18.98;5.47;;;;;;;;;;5020707;28;20112;-73
2023/05/27 01:27:20;;;;;;;17.85;5.18;;;;;;;;;;5017742;28;20568;-74
2023/05/27 01:29:46;;;;;;;18.52;5.30;;;;;;;;;;5027717;28;20427;-73
2023/05/27 01:32:15;;;;;;;13.50;5.00;;;;;;;;;;4997068;28;20446;-74
2023/05/27 01:34:52;;;;;;;15.70;5.20;;;;;;;;;;5005629;28;20034;-73
2023/05/27 01:37:19;;;;;;;16.08;4.45;;;;;;;;;;5023177;28;20210;-74
2023/05/27 01:39:46;;;;;;;18.00;6.30;;;;;;;;;;5015135;28;20018;-74
2023/05/27 01:42:12;;;;;;;23.15;6.93;;;;;;;;;;5000314;28;20109;-73
2023/05/27 01:44:39;;;;;;;15.38;5.63;;;;;;;;;;5024938;28;20033;-73
2023/05/27 01:47:05;;;;;;;14.68;4.90;;;;;;;;;;5021767;28;20029;-73
2023/05/27 01:49:31;;;;;;;19.23;5.75;;;;;;;;;;5016667;28;20111;-74
2023/05/27 01:51:57;;;;;;;13.68;4.70;;;;;;;;;;5027349;28;20029;-74
2023/05/27 01:54:23;;;;;;;18.85;5.47;;;;;;;;;;5016140;28;20061;-74
2023/05/27 01:56:49;;;;;;;15.02;4.68;;;;;;;;;;5022250;28;20403;-73
2023/05/27 01:59:15;;;;;;;18.17;6.10;;;;;;;;;;5022694;28;20017;-73
2023/05/27 02:01:42;;;;;;;13.77;5.75;;;;;;;;;;5004579;28;20358;-74
2023/05/27 02:04:08;;;;;;;22.70;6.00;;;;;;;;;;5027013;28;20028;-74
2023/05/27 02:06:34;;;;;;;20.90;6.07;;;;;;;;;;5017787;28;20025;-74
2023/05/27 02:09:00;;;;;;;14.77;6.20;;;;;;;;;;5020099;28;20026;-74
2023/05/27 02:11:26;;;;;;;16.92;5.53;;;;;;;;;;5006664;28;20435;-73
2023/05/27 02:13:52;;;;;;;14.85;6.18;;;;;;;;;;5014496;28;20092;-74
2023/05/27 02:16:20;;;;;;;20.52;7.85;;;;;;;;;;5008264;28;20041;-73
2023/05/27 02:18:48;;;;;;;20.33;6.80;;;;;;;;;;5018674;28;20155;-73
2023/05/27 02:21:14;;;;;;;24.10;8.18;;;;;;;;;;5001059;28;20026;-73
2023/05/27 02:23:40;;;;;;;19.20;7.35;;;;;;;;;;5026549;28;20033;-74
2023/05/27 02:26:07;;;;;;;21.20;6.00;;;;;;;;;;4996730;28;20108;-74
2023/05/27 02:28:32;;;;;;;19.23;6.43;;;;;;;;;;5005658;28;20037;-74
2023/05/27 02:30:59;;;;;;;14.43;6.05;;;;;;;;;;5020734;28;20025;-74
2023/05/27 02:33:25;;;;;;;15.63;6.22;;;;;;;;;;5017063;28;20497;-74
2023/05/27 02:35:51;;;;;;;12.88;6.13;;;;;;;;;;5027231;28;20083;-74
2023/05/27 02:38:17;;;;;;;15.57;6.18;;;;;;;;;;5014110;28;20021;-74
2023/05/27 02:40:43;;;;;;;18.98;6.35;;;;;;;;;;5022723;28;20026;-74
2023/05/27 02:43:10;;;;;;;19.25;6.40;;;;;;;;;;5022086;28;20033;-74
2023/05/27 02:45:36;;;;;;;16.65;6.13;;;;;;;;;;4997561;28;20109;-73
2023/05/27 02:48:03;;;;;;;15.60;6.63;;;;;;;;;;5026365;28;20025;-74
2023/05/27 02:50:29;;;;;;;14.73;6.10;;;;;;;;;;5016611;28;20029;-73
2023/05/27 02:52:55;;;;;;;14.48;5.70;;;;;;;;;;5003047;28;20026;-74
2023/05/27 02:55:21;;;;;;;17.38;4.80;;;;;;;;;;5006032;28;20025;-74
2023/05/27 02:57:47;;;;;;;19.23;6.85;;;;;;;;;;5013248;28;20032;-74
2023/05/27 03:00:13;;;;;;;14.90;5.45;;;;;;;;;;5026075;28;20033;-73
2023/05/27 03:02:40;;;;;;;19.35;5.90;;;;;;;;;;4999449;28;20076;-74
2023/05/27 03:05:06;;;;;;;15.88;5.57;;;;;;;;;;5021748;28;20025;-73
2023/05/27 03:07:32;;;;;;;21.50;6.43;;;;;;;;;;5015109;28;20109;-74
2023/05/27 03:09:58;;;;;;;15.60;6.40;;;;;;;;;;5026774;28;20484;-74
2023/05/27 03:12:24;;;;;;;21.10;5.97;;;;;;;;;;4997887;28;20064;-74
2023/05/27 03:14:51;;;;;;;19.33;6.15;;;;;;;;;;5021499;28;20463;-74
2023/05/27 03:17:18;;;;;;;19.60;6.28;;;;;;;;;;5022273;28;20220;-74
2023/05/27 03:19:44;;;;;;;20.52;6.53;;;;;;;;;;5014235;28;20028;-74
2023/05/27 03:22:10;;;;;;;18.90;5.85;;;;;;;;;;5009657;28;20018;-73
2023/05/27 03:24:36;;;;;;;14.52;5.78;;;;;;;;;;5020757;28;20029;-74
2023/05/27 03:27:03;;;;;;;17.13;5.90;;;;;;;;;;5022796;28;20029;-73
2023/05/27 03:29:30;;;;;;;13.45;5.60;;;;;;;;;;5027649;28;20104;-74
2023/05/27 03:31:56;;;;;;;20.88;6.28;;;;;;;;;;5017169;28;20076;-74
2023/05/27 03:34:23;;;;;;;19.33;6.38;;;;;;;;;;5028322;28;20029;-73
2023/05/27 03:36:50;;;;;;;12.38;5.88;;;;;;;;;;5022112;28;20089;-73
2023/05/27 03:39:16;;;;;;;17.38;6.53;;;;;;;;;;5020579;28;20026;-72
2023/05/27 03:41:42;;;;;;;16.05;5.63;;;;;;;;;;5029244;28;20022;-73
2023/05/27 03:44:08;;;;;;;12.77;5.30;;;;;;;;;;5017186;28;20081;-73
2023/05/27 03:46:35;;;;;;;13.13;5.10;;;;;;;;;;5027027;28;20587;-73
2023/05/27 03:49:01;;;;;;;17.23;4.88;;;;;;;;;;5023104;28;20025;-73
2023/05/27 03:51:27;;;;;;;15.95;6.30;;;;;;;;;;5019478;28;20099;-73
2023/05/27 03:53:53;;;;;;;13.30;5.03;;;;;;;;;;5030560;28;20543;-73
2023/05/27 03:56:19;;;;;;;15.20;5.10;;;;;;;;;;5018522;28;20075;-73
2023/05/27 03:58:45;;;;;;;13.02;5.30;;;;;;;;;;5024198;28;20030;-73
2023/05/27 04:01:11;;;;;;;13.63;5.22;;;;;;;;;;5018067;28;20029;-74
2023/05/27 04:03:39;;;;;;;14.88;5.25;;;;;;;;;;5028298;28;20038;-73
2023/05/27 04:06:06;;;;;;;12.35;4.90;;;;;;;;;;5016714;28;20018;-74
2023/05/27 04:08:32;;;;;;;13.20;5.15;;;;;;;;;;5025754;28;20647;-74
2023/05/27 04:10:58;;;;;;;10.88;5.25;;;;;;;;;;5005472;28;20392;-73
2023/05/27 04:13:24;;;;;;;12.45;5.03;;;;;;;;;;5019224;28;20042;-74
2023/05/27 04:15:51;;;;;;;13.40;4.82;;;;;;;;;;5029417;28;20025;-74
2023/05/27 04:18:17;;;;;;;11.98;4.55;;;;;;;;;;5016567;28;20030;-74
2023/05/27 04:20:44;;;;;;;12.27;5.00;;;;;;;;;;5025088;28;20399;-74
2023/05/27 04:23:10;;;;;;;11.75;4.95;;;;;;;;;;5012872;28;20050;-74
2023/05/27 04:25:37;;;;;;;13.05;4.85;;;;;;;;;;5027782;28;20128;-74
2023/05/27 04:28:07;;;;;;;14.25;5.18;;;;;;;;;;5015318;28;20041;-74
2023/05/27 04:30:34;;;;;;;12.37;4.73;;;;;;;;;;5008107;28;20084;-74
2023/05/27 04:33:00;;;;;;;11.75;4.88;;;;;;;;;;5022465;28;20637;-74
2023/05/27 04:35:26;;;;;;;9.45;4.75;;;;;;;;;;5018532;28;20093;-73
2023/05/27 04:37:52;;;;;;;10.88;4.63;;;;;;;;;;5028048;28;20018;-74
2023/05/27 04:40:19;;;;;;;11.93;4.57;;;;;;;;;;5016775;28;20491;-74
2023/05/27 04:42:45;;;;;;;11.30;4.95;;;;;;;;;;5024066;28;20092;-74
2023/05/27 04:45:11;;;;;;;10.02;4.57;;;;;;;;;;5025118;28;20029;-74
2023/05/27 04:47:37;;;;;;;13.57;4.88;;;;;;;;;;5016543;28;20092;-74
2023/05/27 04:50:04;;;;;;;13.13;5.18;;;;;;;;;;5010982;28;20064;-75
2023/05/27 04:52:37;;;;;;;11.13;4.53;;;;;;;;;;5017994;28;20036;-75
2023/05/27 04:55:05;;;;;;;12.02;4.63;;;;;;;;;;5021398;28;20030;-75
2023/05/27 04:57:31;;;;;;;13.15;4.80;;;;;;;;;;5025890;28;20073;-74
2023/05/27 05:00:49;;;;;;;10.25;4.22;;;;;;;;;;5015528;28;20392;-75
2023/05/27 05:02:47;;;;;;;11.27;4.13;;;24.50;33.90;;;;;;5002986;28;20033;-75
2023/05/27 05:05:13;;;;;;;12.63;4.53;;;24.80;33.90;;;;;;5019751;28;20026;-75
2023/05/27 05:07:40;;;;;;;11.55;4.68;;;24.70;33.50;;;;;;5026741;28;20108;-75
2023/05/27 05:10:11;;;;;;;13.30;4.90;;;24.80;33.20;;;;;;4997719;28;20082;-75
2023/05/27 05:12:37;;;;;;;13.88;5.00;;;24.70;33.80;;;;;;5024752;28;20407;-75
2023/05/27 05:15:03;;;;;;;15.63;5.53;;;24.90;33.30;;;;;;5022553;28;20025;-75
2023/05/27 05:17:29;;;;;;;13.55;5.30;;;25.30;32.90;;;;;;5016685;28;20025;-75
2023/05/27 05:19:55;;;;;;;15.52;5.80;;;25.60;32.00;;;;;;5027958;28;20072;-76
2023/05/27 05:22:22;;;;;;;16.02;6.13;;;24.70;33.30;;;;;;5016526;28;20048;-75
2023/05/27 05:24:49;;;;;;;14.23;5.13;;;25.80;32.50;;;;;;5005170;28;20053;-75
2023/05/27 05:27:15;;;;;;;17.25;5.93;;;26.40;31.50;;;;;;5023295;28;20533;-75
2023/05/27 05:29:41;;;;;;;16.17;6.00;;;25.50;32.30;;;;;;5015752;28;20034;-75
2023/05/27 05:32:08;;;;;;;15.85;5.78;;;;;;;;;;5027717;28;20028;-74
2023/05/27 05:34:34;;;;;;;17.60;6.05;;;;;;;;;;5017817;28;20034;-74
2023/05/27 05:37:00;;;;;;;15.23;5.50;;;;;;;;;;5020914;28;20030;-73
2023/05/27 05:39:26;;;;;;;15.55;6.13;;;;;;;;;;5024853;28;20021;-75
2023/05/27 05:41:52;;;;;;;13.32;4.75;;;;;;;;;;5014698;28;20025;-76
2023/05/27 05:44:18;;;;;;;9.32;5.45;;;;;;;;;;5026305;28;20496;-75
2023/05/27 05:46:44;;;;;;;13.00;5.07;;;25.70;32.60;;;;;;5018596;28;20029;-76
2023/05/27 05:49:10;;;;;;;13.57;5.63;;;25.70;32.50;;;;;;5018886;28;20123;-76
2023/05/27 05:51:35;;;;;;;14.05;5.15;;;26.30;31.70;;;;;;5008117;28;20022;-77
2023/05/27 05:54:01;;;;;;;15.05;5.38;;;26.00;31.30;;;;;;5027035;28;20068;-76
2023/05/27 05:56:27;;;;;;;15.02;5.28;;;26.90;31.30;;;;;;5016656;28;20036;-76
2023/05/27 05:58:53;;;;;;;12.05;4.82;;;27.70;29.90;;;;;;5021165;28;20105;-76
2023/05/27 06:01:19;;;;;;;13.82;4.72;;;28.40;29.30;;;;;;5015562;28;20022;-75
2023/05/27 06:03:45;;;;;;;11.27;4.70;;;28.60;28.50;;;;;;5027442;28;20053;-75
2023/05/27 06:06:11;;;;;;;16.55;5.90;;;29.10;28.50;;;;;;4998212;28;20555;-75
2023/05/27 06:08:36;;;;;;;15.48;4.95;;;27.50;29.10;;;;;;5021419;28;20030;-75
2023/05/27 06:11:03;;;;;;;12.65;4.70;;;;;;;;;;5009784;28;20496;-75
2023/05/27 06:13:28;;;;;;;13.77;4.90;;;26.70;30.40;;;;;;5023449;28;20033;-76
2023/05/27 06:15:55;;;;;;;14.85;5.07;;;;;;;;;;5012996;28;20038;-73
2023/05/27 06:18:21;;;;;;;16.75;5.75;;;;;;;;;;5006322;28;20015;-74
2023/05/27 06:20:47;;;;;;;16.17;5.43;;;;;;;;;;5018224;28;20026;-75
2023/05/27 06:23:14;;;;;;;13.20;4.53;;;;;;;;;;5018218;28;20018;-74
2023/05/27 06:25:40;;;;;;;11.55;4.65;;;;;;;;;;5026381;28;20030;-73
2023/05/27 06:28:06;;;;;;;17.13;6.07;;;;;;;;;;5012953;28;20038;-76
2023/05/27 06:30:32;;;;;;;13.23;4.53;;;;;;;;;;5023304;28;20034;-76
2023/05/27 06:32:58;;;;;;;18.10;5.57;;;;;;;;;;5019266;28;20028;-76
2023/05/27 06:35:24;;;;;;;16.08;5.00;;;;;;;;;;5017154;28;20026;-75
2023/05/27 06:37:50;;;;;;;16.80;4.50;;;;;;;;;;5025032;28;20044;-75
2023/05/27 06:40:16;;;;;;;16.38;5.05;;;;;;;;;;5014550;28;20030;-75
2023/05/27 06:42:44;;;;;;;13.30;4.85;;;;;;;;;;5013571;28;20659;-75
2023/05/27 06:45:10;;;;;;;15.23;4.72;;;;;;;;;;5020788;28;20021;-74
2023/05/27 06:47:36;;;;;;;14.80;4.45;;;24.90;34.20;;;;;;5012991;28;20030;-74
2023/05/27 06:50:02;;;;;;;12.90;4.32;;;;;;;;;;5024226;28;20108;-74
2023/05/27 06:52:28;;;;;;;12.68;4.40;;;;;;;;;;5014689;28;20021;-74
2023/05/27 06:54:54;;;;;;;11.68;4.35;;;;;;;;;;5019168;28;20030;-74
2023/05/27 06:57:20;;;;;;;15.60;4.38;;;;;;;;;;5023974;28;20014;-75
2023/05/27 06:59:46;;;;;;;11.82;3.92;;;24.40;35.60;;;;;;5016406;28;20101;-75
2023/05/27 07:02:12;;;;;;;12.70;4.57;;;;;;;;;;5022421;28;20104;-75
2023/05/27 07:04:38;;;;;;;14.35;4.30;;;;;;;;;;5026784;28;20034;-75
2023/05/27 07:07:04;;;;;;;12.23;4.35;;;25.50;32.70;;;;;;5024487;28;20064;-74
2023/05/27 07:09:29;;;;;;;9.95;4.00;;;25.70;32.60;;;;;;5019193;28;20061;-75
2023/05/27 07:14:28;;;;;;;13.32;4.30;;;24.90;32.60;;;;;;5083046;23;20067;-77
2023/05/27 07:16:53;;;;;;;12.27;4.38;;;25.10;32.40;;;;;;5046116;28;20117;-77
2023/05/27 07:19:19;;;;;;;13.60;4.20;;;25.80;31.70;;;;;;5047046;28;20495;-77
2023/05/27 07:21:45;;;;;;;14.45;4.80;;;;;;;;;;5051509;28;20447;-77
2023/05/27 07:24:11;;;;;;;12.10;4.07;;;25.10;32.60;;;;;;5039008;28;20025;-77
2023/05/27 07:26:37;;;;;;;13.90;4.28;;;;;;;;;;5038783;28;20017;-76
2023/05/27 07:29:03;;;;;;;9.27;4.18;;;;;;;;;;5042520;28;20036;-76
2023/05/27 07:31:30;;;;;;;11.93;3.83;;;;;;;;;;5049440;28;20074;-77
2023/05/27 07:33:56;;;;;;;12.70;4.70;;;;;;;;;;5039220;28;20025;-74
2023/05/27 07:36:22;;;;;;;10.88;4.63;;;;;;;;;;5048146;28;20029;-74
2023/05/27 07:38:47;;;;;;;12.98;4.18;;;24.90;33.20;;;;;;5041233;28;20067;-74
2023/05/27 07:41:13;;;;;;;13.55;4.40;;;25.90;32.00;;;;;;5029640;28;20438;-74
2023/05/27 07:43:39;;;;;;;11.77;3.88;;;26.60;31.40;;;;;;5052853;28;20021;-74
2023/05/27 07:46:05;;;;;;;12.07;3.83;;;26.50;30.70;;;;;;5050011;28;20107;-75
2023/05/27 07:48:31;;;;;;;12.65;4.88;;;27.00;30.70;;;;;;5038531;28;20113;-74
2023/05/27 07:50:57;;;;;;;12.95;4.68;;;;;;;;;;5052457;28;20445;-74
2023/05/27 07:53:23;;;;;;;9.80;3.95;;;;;;;;;;5037791;28;20137;-74
2023/05/27 07:55:49;;;;;;;16.60;5.22;;;;;;;;;;5031384;28;20111;-74
2023/05/27 07:58:15;;;;;;;10.20;3.95;;;;;;;;;;5036014;28;20415;-75
2023/05/27 08:00:41;;;;;;;16.40;5.18;;;;;;;;;;5046922;28;20017;-76
2023/05/27 08:03:07;;;;;;;13.43;4.30;;;;;;;;;;5028081;28;20693;-76
2023/05/27 08:05:33;;;;;;;11.15;3.80;;;;;;;;;;5044763;28;20037;-76
2023/05/27 08:07:59;;;;;;;13.65;4.55;;;;;;;;;;5046731;28;20510;-75
2023/05/27 08:10:26;;;;;;;12.70;4.03;;;;;;;;;;5017848;28;20029;-75
2023/05/27 08:12:52;;;;;;;15.02;4.63;;;;;;;;;;5023061;28;20033;-75
2023/05/27 08:15:18;;;;;;;12.48;4.47;;;;;;;;;;5043060;28;20395;-76
2023/05/27 08:17:44;;;;;;;15.05;4.57;;;;;;;;;;5015758;28;20030;-76
2023/05/27 08:20:11;;;;;;;12.40;3.97;;;;;;;;;;5047802;28;20030;-76
2023/05/27 08:22:37;;;;;;;13.45;4.13;;;;;;;;;;5039653;28;20100;-75
2023/05/27 08:25:03;;;;;;;14.75;4.68;;;;;;;;;;5042056;28;20056;-76
2023/05/27 08:27:48;;;;;;;13.98;4.65;;;;;;;;;;5045900;28;20025;-75
2023/05/27 08:30:14;;;;;;;14.00;4.25;;;25.20;33.30;;;;;;5036385;28;20025;-76
2023/05/27 08:32:43;;;;;;;12.90;4.30;;;26.50;31.90;;;;;;5045484;28;20033;-75
2023/05/27 08:35:10;;;;;;;14.93;4.47;;;27.20;29.70;;;;;;5043874;28;20110;-76
2023/05/27 08:37:36;;;;;;;13.77;4.30;;;27.00;29.50;;;;;;5036393;28;20026;-76
2023/05/27 08:40:04;;;;;;;11.75;4.38;;;;;;;;;;5048910;28;20029;-76
2023/05/27 08:42:30;;;;;;;12.18;4.38;;;;;;;;;;5038322;28;20021;-76
2023/05/27 08:44:56;;;;;;;10.75;4.30;;;;;;;;;;5042563;28;20577;-76
2023/05/27 08:47:22;;;;;;;10.32;4.03;;;;;;;;;;5044952;28;20029;-76
2023/05/27 08:49:48;;;;;;;12.15;3.90;;;25.40;32.90;;;;;;5037722;28;20083;-76
2023/05/27 08:52:18;;;;;;;12.35;4.57;;;26.50;32.20;;;;;;5029675;28;20033;-77
2023/05/27 08:54:45;;;;;;;11.68;4.18;;;;;;;;;;5040506;28;20055;-77
2023/05/27 08:57:13;;;;;;;10.80;4.28;;;;;;;;;;5039671;28;20044;-75
2023/05/27 08:59:40;;;;;;;13.05;4.53;;;;;;;;;;5047864;28;20071;-75
2023/05/27 09:02:10;;;;;;;14.45;4.25;;;;;;;;;;5046572;28;20087;-75
2023/05/27 09:04:37;;;;;;;14.70;3.93;;;;;;;;;;5045167;28;20108;-75
2023/05/27 09:07:03;;;;;;;12.25;4.18;;;;;;;;;;5042100;28;20043;-75
2023/05/27 09:09:29;;;;;;;11.02;4.18;;;;;;;;;;5037371;28;20390;-75
2023/05/27 09:11:59;;;;;;;10.45;3.85;;;;;;;;;;5048223;28;20031;-75
2023/05/27 09:14:28;;;;;;;16.42;4.10;;;;;;;;;;5036848;28;20075;-75
2023/05/27 09:16:54;;;;;;;12.32;4.57;;;;;;;;;;5042218;28;20087;-76
2023/05/27 09:19:20;;;;;;;12.07;4.05;;;25.10;34.10;;;;;;5043740;28;20017;-76
2023/05/27 09:21:47;;;;;;;9.75;3.47;;;25.60;31.10;;;;;;5034861;28;20033;-76
2023/05/27 09:24:13;;;;;;;14.40;4.38;;;;;;;;;;5029520;28;20017;-76
2023/05/27 09:26:39;;;;;;;10.93;3.72;;;;;;;;;;5038585;28;20491;-75
2023/05/27 09:29:08;;;;;;;12.10;3.92;;;;;;;;;;5039854;28;20053;-75
2023/05/27 09:31:41;;;;;;;12.95;4.45;;;;;;;;;;5046350;28;20058;-76
2023/05/27 09:34:15;;;;;;;10.85;3.85;;;24.50;35.60;;;;;;5017048;28;20418;-76
2023/05/27 09:36:51;;;;;;;15.82;4.32;;;24.80;34.50;;;;;;5043584;28;20025;-76
2023/05/27 09:39:21;;;;;;;11.00;3.47;;;25.90;33.20;;;;;;5043265;28;20033;-76
2023/05/27 09:41:55;;;;;;;9.40;3.80;;;27.00;30.70;;;;;;5035003;28;20029;-75
2023/05/27 09:44:21;;;;;;;15.90;3.78;;;;;;;;;;5035670;28;20024;-76
2023/05/27 09:46:49;;;;;;;8.70;3.67;;;;;;;;;;5050866;28;20108;-75
2023/05/27 09:49:16;;;;;;;12.57;3.50;;;;;;;;;;5050299;28;20482;-76
2023/05/27 09:51:42;;;;;;;5.97;3.42;;;;;;;;;;5051300;28;20051;-77
2023/05/27 09:54:09;;;;;;;14.50;4.07;;;;;;;;;;5035789;28;20033;-76
2023/05/27 09:56:35;;;;;;;10.55;3.63;;;;;;;;;;5044804;28;20026;-77
2023/05/27 09:59:05;;;;;;;11.60;3.72;;;;;;;;;;5039338;28;20484;-77
2023/05/27 10:01:31;;;;;;;10.70;4.10;;;;;;;;;;5053191;28;20017;-77
2023/05/27 10:03:58;;;;;;;14.55;4.00;;;;;;;;;;5042282;28;20044;-77
2023/05/27 10:06:25;;;;;;;8.00;3.70;;;;;;;;;;5034498;28;20022;-77
2023/05/27 10:09:01;;;;;;;11.07;3.88;;;;;;;;;;5046619;28;20028;-76
2023/05/27 10:11:30;;;;;;;13.23;3.90;;;;;;;;;;5041948;28;20124;-77
2023/05/27 10:13:56;;;;;;;10.80;3.55;;;;;;;;;;5036922;28;20188;-77
2023/05/27 10:16:23;;;;;;;9.90;3.75;;;;;;;;;;5054626;28;20063;-76
2023/05/27 10:18:58;;;;;;;12.98;3.88;;;;;;;;;;5045032;28;20100;-76
2023/05/27 10:21:31;;;;;;;12.32;4.45;;;;;;;;;;5045835;28;20055;-76
2023/05/27 10:24:01;;;;;;;12.23;4.00;;;;;;;;;;5050207;28;20487;-76
2023/05/27 10:26:38;;;;;;;10.38;3.72;;;;;;;;;;5038214;28;20032;-76
2023/05/27 10:29:12;;;;;;;14.27;3.85;;;;;;;;;;5032373;28;20026;-77
2023/05/27 10:31:48;;;;;;;14.00;4.00;;;;;;;;;;5051430;28;20029;-76
2023/05/27 10:34:14;;;;;;;14.27;4.78;;;;;;;;;;5041084;28;20028;-75
2023/05/27 10:36:40;;;;;;;14.88;4.60;;;;;;;;;;5050311;28;20025;-77
2023/05/27 10:39:12;;;;;;;11.80;4.43;;;;;;;;;;5055923;28;20021;-75
2023/05/27 10:41:49;;;;;;;13.45;4.10;;;;;;;;;;5049444;28;20704;-76
2023/05/27 10:44:26;;;;;;;12.07;4.15;;;;;;;;;;5052086;28;20028;-76
2023/05/27 10:47:00;;;;;;;8.23;3.72;;;;;;;;;;5042627;28;20100;-76
2023/05/27 10:49:35;;;;;;;11.15;3.95;;;;;;;;;;5054753;28;20021;-76
2023/05/27 10:52:06;;;;;;;9.48;3.60;;;;;;;;;;5035032;28;20029;-77
2023/05/27 10:54:32;;;;;;;;;;;;;;;;;;5040604;28;20040;-75
2023/05/27 10:56:58;;;;;;;10.13;3.42;;;;;;;;;;5035818;28;19931;-76
2023/05/27 10:59:25;;;;;;;7.18;3.63;;;;;;;;;;5047113;28;20025;-75
2023/05/27 11:01:53;;;;;;;14.07;3.70;;;;;;;;;;5030112;28;20032;-76
2023/05/27 11:04:19;;;;;;;13.43;3.70;;;;;;;;;;5052034;28;20026;-77
2023/05/27 11:06:59;;;;;;;11.02;3.83;;;;;;;;;;5043219;28;20040;-75
2023/05/27 11:09:25;;;;;;;9.85;3.95;;;;;;;;;;5022894;28;20026;-75
2023/05/27 11:11:51;;;;;;;12.00;3.70;;;;;;;;;;5050908;28;20387;-76
2023/05/27 11:14:20;;;;;;;13.23;4.30;;;;;;;;;;5037692;28;20115;-76
2023/05/27 11:16:48;;;;;;;11.40;3.55;;;;;;;;;;5045678;28;20164;-78
2023/05/27 11:19:14;;;;;;;9.63;3.47;;;;;;;;;;5046760;28;20466;-76
2023/05/27 11:21:47;;;;;;;13.05;4.03;;;;;;;;;;5030260;28;20017;-76
2023/05/27 11:24:17;;;;;;;12.25;3.60;;;;;;;;;;5039185;28;20476;-75
2023/05/27 11:26:47;;;;;;;9.68;3.55;;;;;;;;;;5047199;28;20104;-76
2023/05/27 11:29:13;;;;;;;12.50;3.97;;;;;;;;;;5047288;28;20026;-76
2023/05/27 11:31:40;;;;;;;8.60;3.28;;;;;;;;;;5056734;28;20475;-76
2023/05/27 11:34:13;;;;;;;6.60;2.92;;;;;;;;;;5042426;28;20032;-76
2023/05/27 11:36:39;;;;;;;8.68;3.60;;;;;;;;;;5052613;28;20024;-77
2023/05/27 11:39:06;;;;;;;9.45;3.17;;;;;;;;;;5054472;28;20463;-76
2023/05/27 11:41:33;;;;;;;6.45;2.97;;;;;;;;;;5038806;28;20021;-77
2023/05/27 11:43:59;;;;;;;10.32;3.53;;;;;;;;;;5048440;28;20025;-76
2023/05/27 11:46:35;;;;;;;9.93;3.80;;;;;;;;;;5045182;28;20410;-76
2023/05/27 11:49:01;;;;;;;11.82;3.45;;;;;;;;;;5034473;28;20124;-76
2023/05/27 11:51:31;;;;;;;7.63;3.30;;;;;;;;;;5038668;28;20029;-78
2023/05/27 11:54:00;;;;;;;5.20;2.67;;;;;;;;;;5042233;28;20021;-76
2023/05/27 11:56:28;;;;;;;7.60;2.88;;;;;;;;;;5045683;28;20060;-76
2023/05/27 11:58:55;;;;;;;6.38;2.78;;;;;;;;;;5040691;28;20100;-76
2023/05/27 12:01:21;;;;;;;12.48;3.17;;;;;;;;;;5039403;28;20017;-77
2023/05/27 12:03:47;;;;;;;8.18;3.28;;;;;;;;;;5030391;28;20671;-76
2023/05/27 12:06:13;;;;;;;7.97;3.20;;;;;;;;;;5047711;28;20025;-76
2023/05/27 12:08:39;;;;;;;8.18;3.45;;;;;;;;;;5037781;28;20036;-76
2023/05/27 12:11:05;;;;;;;5.05;2.67;;;;;;;;;;5040462;28;20431;-76
2023/05/27 12:13:31;;;;;;;7.20;3.35;;;;;;;;;;5045718;28;20129;-76
2023/05/27 12:15:58;;;;;;;7.95;3.10;;;;;;;;;;5032214;28;20032;-76
2023/05/27 12:18:24;;;;;;;7.97;3.50;;;;;;;;;;5035158;28;20078;-76
2023/05/27 12:20:50;;;;;;;6.65;2.92;;;;;;;;;;5044936;28;20032;-76
2023/05/27 12:23:16;;;;;;;8.18;3.20;;;;;;;;;;5044216;28;20036;-76
2023/05/27 12:25:42;;;;;;;8.02;3.53;;;;;;;;;;5048443;28;20033;-75
2023/05/27 12:28:09;;;;;;;8.68;3.30;;;;;;;;;;5039225;28;20017;-76
2023/05/27 12:30:36;;;;;;;8.68;3.20;;;;;;;;;;5021671;28;20026;-75
2023/05/27 12:33:02;;;;;;;7.40;2.80;;;;;;;;;;5041297;28;20079;-75
2023/05/27 12:35:28;;;;;;;8.95;3.05;;;;;;;;;;5018641;28;20021;-75
2023/05/27 12:37:54;;;;;;;6.00;2.58;;;;;;;;;;5028840;28;20055;-75
2023/05/27 12:40:20;;;;;;;9.25;2.78;;;;;;;;;;5046655;28;20057;-76
2023/05/27 12:42:47;;;;;;;6.03;2.78;;;;;;;;;;5039550;28;20408;-76
2023/05/27 12:45:13;;;;;;;8.75;3.65;;;;;;;;;;5025486;28;20120;-76
2023/05/27 12:47:39;;;;;;;6.32;3.15;;;;;;;;;;5035509;28;20022;-76
2023/05/27 12:50:05;;;;;;;8.77;3.55;;;;;;;;;;5048303;28;20033;-76
2023/05/27 12:52:32;;;;;;;5.93;3.17;;;;;;;;;;5029970;28;20029;-76
2023/05/27 12:54:58;;;;;;;8.88;3.28;;;;;;;;;;5041631;28;20024;-76
2023/05/27 12:57:25;;;;;;;6.95;3.38;;;;;;;;;;5037511;28;20060;-75
2023/05/27 12:59:51;;;;;;;4.55;3.03;;;;;;;;;;5048279;28;20017;-76
2023/05/27 13:02:17;;;;;;;6.13;3.17;;;;;;;;;;5047595;28;20032;-75
2023/05/27 13:04:44;;;;;;;9.73;3.10;;;;;;;;;;5044181;28;20021;-76
2023/05/27 13:07:10;;;;;;;5.60;3.05;;;;;;;;;;5042738;28;20017;-76
2023/05/27 13:09:37;;;;;;;9.00;3.15;;;;;;;;;;5036768;28;20034;-75
2023/05/27 13:12:03;;;;;;;5.47;2.70;;;;;;;;;;5048333;28;20108;-76
2023/05/27 13:14:30;;;;;;;12.05;3.15;;;;;;;;;;5068963;23;20122;-74
2023/05/27 13:16:56;;;;;;;9.05;3.40;;;;;;;;;;5041638;28;20041;-74
2023/05/27 13:19:22;;;;;;;10.82;3.08;;;;;;;;;;5044260;28;20105;-75
2023/05/27 13:21:48;;;;;;;5.15;2.85;;;;;;;;;;5034844;28;20045;-74
2023/05/27 13:24:14;;;;;;;6.22;2.85;;;;;;;;;;5047417;28;20361;-74
2023/05/27 13:26:40;;;;;;;9.30;3.13;;;;;;;;;;5038797;28;20024;-74
2023/05/27 13:29:06;;;;;;;5.85;3.20;;;;;;;;;;5039689;28;20029;-74
2023/05/27 13:31:33;;;;;;;8.23;3.60;;;;;;;;;;5046037;28;20032;-74
2023/05/27 13:33:59;;;;;;;6.90;2.97;;;;;;;;;;5034761;28;20438;-74
2023/05/27 13:36:25;;;;;;;7.15;3.20;;;;;;;;;;5027722;28;20033;-75
2023/05/27 13:38:51;;;;;;;6.70;2.90;;;;;;;;;;5039505;28;20017;-74
2023/05/27 13:41:17;;;;;;;7.90;3.35;;;;;;;;;;5038332;28;20087;-74
2023/05/27 13:43:43;;;;;;;8.57;2.97;;;;;;;;;;5047080;28;20553;-74
2023/05/27 13:46:09;;;;;;;8.05;3.50;;;;;;;;;;5034250;28;20029;-74
2023/05/27 13:48:35;;;;;;;4.45;2.47;;;;;;;;;;5043330;28;20468;-73
2023/05/27 13:51:02;;;;;;;6.40;3.13;;;;;;;;;;5023372;28;20049;-74
2023/05/27 13:53:27;;;;;;;6.25;2.53;;;;;;;;;;5035406;28;20025;-74
2023/05/27 13:55:53;;;;;;;9.98;2.92;;;;;;;;;;5047214;28;20033;-74
2023/05/27 13:58:19;;;;;;;7.18;3.47;;;;;;;;;;5036295;28;20372;-74
2023/05/27 14:00:46;;;;;;;8.57;3.20;;;;;;;;;;5026120;28;20032;-74
2023/05/27 14:03:12;;;;;;;5.43;3.03;;;;;;;;;;5043202;28;20021;-73
2023/05/27 14:05:38;;;;;;;7.78;2.83;;;;;;;;;;5034821;28;20036;-74
2023/05/27 14:08:04;;;;;;;6.65;2.70;;;;;;;;;;5028120;28;20033;-73
2023/05/27 14:10:32;;;;;;;7.78;3.50;;;;;;;;;;5037092;28;20036;-73
2023/05/27 14:12:59;;;;;;;8.50;3.70;;;;;;;;;;5040455;28;20060;-73
2023/05/27 14:15:28;;;;;;;9.30;3.20;;;;;;;;;;5044596;28;20104;-74
2023/05/27 14:18:00;;;;;;;7.95;3.17;;;;;;;;;;5033601;28;20032;-73